Time,TemperatureF,DewpointF,PressureIn,WindDirection,WindDirectionDegrees,WindSpeedMPH,WindSpeedGustMPH,Humidity,HourlyPrecipIn,Conditions,Clouds,dailyrainin,SoftwareType,DateUTC
2013-01-24 00:03:00,44.1,13.1,29.98,SW,223,10.1,13.2,28,0.00,,CLR,0.00,VWS V14.01,2013-01-24 07:03:00,
2013-01-24 00:08:00,44.1,10.5,29.98,SW,225,21.0,21.0,25,0.00,,CLR,0.00,VWS V14.01,2013-01-24 07:08:00,
2013-01-24 00:13:00,45.0,11.3,29.98,SW,229,17.4,23.7,25,0.00,,CLR,0.00,VWS V14.01,2013-01-24 07:13:00,
2013-01-24 00:18:00,45.5,11.7,29.98,SW,222,17.0,28.0,25,0.00,,CLR,0.00,VWS V14.01,2013-01-24 07:18:00,
2013-01-24 00:23:00,45.1,11.4,29.98,WSW,241,12.8,28.0,25,0.00,,CLR,0.00,VWS V14.01,2013-01-24 07:23:00,
2013-01-24 00:28:00,44.6,11.0,29.98,WSW,241,17.4,28.0,25,0.00,,CLR,0.00,VWS V14.01,2013-01-24 07:28:00,
2013-01-24 00:33:00,44.4,10.8,29.98,WSW,248,17.4,18.8,25,0.00,,CLR,0.00,VWS V14.01,2013-01-24 07:33:00,
2013-01-24 00:38:00,44.2,10.7,29.98,WSW,245,15.0,22.8,25,0.00,,CLR,0.00,VWS V14.01,2013-01-24 07:38:00,
2013-01-24 00:43:00,45.3,8.7,29.98,West,263,13.2,24.2,22,0.00,,CLR,0.00,VWS V14.01,2013-01-24 07:43:00,
2013-01-24 00:48:00,45.0,11.3,29.98,WSW,237,23.3,25.7,25,0.00,,CLR,0.00,VWS V14.01,2013-01-24 07:48:00,
2013-01-24 00:53:00,44.1,10.5,29.98,West,268,10.1,25.7,25,0.00,,CLR,0.00,VWS V14.01,2013-01-24 07:53:00,
2013-01-24 00:58:00,44.6,11.0,29.98,SW,217,8.7,25.7,25,0.00,,CLR,0.00,VWS V14.01,2013-01-24 07:58:00,
2013-01-24 01:03:00,44.8,11.1,29.98,WSW,244,14.5,15.0,25,0.00,,CLR,0.00,VWS V14.01,2013-01-24 08:03:00,
2013-01-24 01:08:00,44.6,11.0,29.98,WSW,245,16.8,17.4,25,0.00,,CLR,0.00,VWS V14.01,2013-01-24 08:08:00,
2013-01-24 01:13:00,45.5,11.7,29.98,WSW,250,16.8,17.4,25,0.00,,CLR,0.00,VWS V14.01,2013-01-24 08:13:00,
2013-01-24 01:18:00,45.0,11.3,29.98,WSW,240,12.8,17.4,25,0.00,,CLR,0.00,VWS V14.01,2013-01-24 08:18:00,
2013-01-24 01:23:00,45.0,11.3,29.98,WSW,244,13.2,17.4,25,0.00,,CLR,0.00,VWS V14.01,2013-01-24 08:23:00,
2013-01-24 01:28:00,43.7,12.8,29.98,West,267,8.1,17.4,28,0.00,,CLR,0.00,VWS V14.01,2013-01-24 08:28:00,
2013-01-24 01:33:00,45.7,9.0,29.98,West,269,5.4,10.1,22,0.00,,CLR,0.00,VWS V14.01,2013-01-24 08:33:00,
2013-01-24 01:38:00,44.6,11.0,29.98,West,268,10.5,17.4,25,0.00,,CLR,0.00,VWS V14.01,2013-01-24 08:38:00,
2013-01-24 01:43:00,45.1,11.4,29.98,WSW,250,12.3,17.4,25,0.00,,CLR,0.00,VWS V14.01,2013-01-24 08:43:00,
2013-01-24 01:48:00,44.4,10.8,29.98,West,280,8.3,17.4,25,0.00,,CLR,0.00,VWS V14.01,2013-01-24 08:48:00,
2013-01-24 01:53:00,44.2,10.7,29.98,WNW,284,8.3,17.4,25,0.00,,CLR,0.00,VWS V14.01,2013-01-24 08:53:00,
2013-01-24 01:58:00,42.8,12.0,29.98,WSW,256,4.5,17.4,28,0.00,,CLR,0.00,VWS V14.01,2013-01-24 08:58:00,
2013-01-24 02:03:00,43.3,12.4,29.95,West,278,12.8,12.8,28,0.00,,CLR,0.00,VWS V14.01,2013-01-24 09:03:00,
2013-01-24 02:08:00,44.4,10.8,29.95,WNW,295,5.8,12.8,25,0.00,,CLR,0.00,VWS V14.01,2013-01-24 09:08:00,
2013-01-24 02:13:00,44.1,10.5,29.95,NW,307,3.6,12.8,25,0.00,,CLR,0.00,VWS V14.01,2013-01-24 09:13:00,
2013-01-24 02:18:00,43.5,10.0,29.95,WNW,287,6.3,12.8,25,0.00,,CLR,0.00,VWS V14.01,2013-01-24 09:18:00,
2013-01-24 02:23:00,42.3,11.5,29.95,South,172,0.0,12.8,28,0.00,,CLR,0.00,VWS V14.01,2013-01-24 09:23:00,
2013-01-24 02:28:00,40.3,9.8,29.95,NW,306,6.3,12.8,28,0.00,,CLR,0.00,VWS V14.01,2013-01-24 09:28:00,
2013-01-24 02:33:00,43.5,12.6,29.95,NNW,330,5.4,8.3,28,0.00,,CLR,0.00,VWS V14.01,2013-01-24 09:33:00,
2013-01-24 02:38:00,43.3,12.4,29.95,WNW,302,6.3,8.3,28,0.00,,CLR,0.00,VWS V14.01,2013-01-24 09:38:00,
2013-01-24 02:43:00,41.9,11.2,29.95,NNW,336,7.6,8.3,28,0.00,,CLR,0.00,VWS V14.01,2013-01-24 09:43:00,
2013-01-24 02:48:00,43.0,12.1,29.95,North,353,3.1,8.3,28,0.00,,CLR,0.00,VWS V14.01,2013-01-24 09:48:00,
2013-01-24 02:53:00,41.2,10.6,29.95,West,279,3.1,8.3,28,0.00,,CLR,0.00,VWS V14.01,2013-01-24 09:53:00,
2013-01-24 02:58:00,39.7,10.1,29.95,NW,307,0.0,8.3,29,0.00,,CLR,0.00,VWS V14.01,2013-01-24 09:58:00,
2013-01-24 03:03:00,39.9,9.5,29.95,SSW,204,3.6,5.8,28,0.00,,CLR,0.00,VWS V14.01,2013-01-24 10:03:00,
2013-01-24 03:08:00,41.0,10.4,29.95,NNW,344,0.0,6.3,28,0.00,,CLR,0.00,VWS V14.01,2013-01-24 10:08:00,
2013-01-24 03:13:00,40.8,10.2,29.95,WSW,254,3.6,6.3,28,0.00,,CLR,0.00,VWS V14.01,2013-01-24 10:13:00,
2013-01-24 03:18:00,41.2,10.6,29.95,West,262,0.0,6.3,28,0.00,,CLR,0.00,VWS V14.01,2013-01-24 10:18:00,
2013-01-24 03:23:00,39.4,9.8,29.95,SW,229,7.6,7.6,29,0.00,,CLR,0.00,VWS V14.01,2013-01-24 10:23:00,
2013-01-24 03:28:00,40.3,10.6,29.95,South,174,11.0,11.0,29,0.00,,CLR,0.00,VWS V14.01,2013-01-24 10:28:00,
2013-01-24 03:33:00,47.3,15.0,29.95,SSW,193,13.2,18.8,27,0.00,,CLR,0.00,VWS V14.01,2013-01-24 10:33:00,
2013-01-24 03:38:00,43.0,12.1,29.95,WSW,247,12.8,18.8,28,0.00,,CLR,0.00,VWS V14.01,2013-01-24 10:38:00,
2013-01-24 03:43:00,44.8,13.7,29.95,West,260,5.8,18.8,28,0.00,,CLR,0.00,VWS V14.01,2013-01-24 10:43:00,
2013-01-24 03:48:00,44.8,13.7,29.95,SW,235,10.5,18.8,28,0.00,,CLR,0.00,VWS V14.01,2013-01-24 10:48:00,
2013-01-24 03:53:00,45.0,13.8,29.95,SSW,210,13.2,21.0,28,0.00,,CLR,0.00,VWS V14.01,2013-01-24 10:53:00,
2013-01-24 03:58:00,46.6,14.4,29.95,SW,215,10.1,21.0,27,0.00,,CLR,0.00,VWS V14.01,2013-01-24 10:58:00,
2013-01-24 04:03:00,46.2,14.9,29.92,SW,217,8.3,17.4,28,0.00,,FEW120,0.00,VWS V14.01,2013-01-24 11:03:00,
2013-01-24 04:08:00,44.8,13.7,29.92,SW,230,8.7,17.4,28,0.00,,FEW120,0.00,VWS V14.01,2013-01-24 11:08:00,
2013-01-24 04:13:00,47.5,15.2,29.92,South,184,8.1,17.4,27,0.00,,FEW120,0.00,VWS V14.01,2013-01-24 11:13:00,
2013-01-24 04:18:00,48.4,16.0,29.92,South,171,10.1,17.4,27,0.00,,FEW120,0.00,VWS V14.01,2013-01-24 11:18:00,
2013-01-24 04:23:00,48.6,16.1,29.92,South,191,8.1,17.4,27,0.00,,FEW120,0.00,VWS V14.01,2013-01-24 11:23:00,
2013-01-24 04:28:00,49.6,17.0,29.92,NW,306,5.8,17.4,27,0.00,,FEW120,0.00,VWS V14.01,2013-01-24 11:28:00,
2013-01-24 04:33:00,46.2,14.9,29.92,SE,141,4.0,5.8,28,0.00,,FEW120,0.00,VWS V14.01,2013-01-24 11:33:00,
2013-01-24 04:38:00,45.0,13.8,29.92,North,11,4.9,7.6,28,0.00,,FEW120,0.00,VWS V14.01,2013-01-24 11:38:00,
2013-01-24 04:43:00,44.8,13.7,29.92,NNW,343,7.2,7.6,28,0.00,,FEW120,0.00,VWS V14.01,2013-01-24 11:43:00,
2013-01-24 04:48:00,44.4,14.2,29.92,WSW,240,10.1,11.0,29,0.00,,FEW120,0.00,VWS V14.01,2013-01-24 11:48:00,
2013-01-24 04:53:00,45.1,14.0,29.92,NNE,14,4.0,11.0,28,0.00,,FEW120,0.00,VWS V14.01,2013-01-24 11:53:00,
2013-01-24 04:58:00,45.1,14.0,29.92,WSW,251,8.3,12.3,28,0.00,,FEW120,0.00,VWS V14.01,2013-01-24 11:58:00,
2013-01-24 05:03:00,45.0,14.6,29.92,SW,232,13.2,23.3,29,0.00,,FEW110,0.00,VWS V14.01,2013-01-24 12:03:00,
2013-01-24 05:08:00,44.4,14.2,29.92,South,187,16.3,23.3,29,0.00,,FEW110,0.00,VWS V14.01,2013-01-24 12:08:00,
2013-01-24 05:13:00,44.6,14.3,29.92,SSW,210,25.1,37.6,29,0.00,,FEW110,0.00,VWS V14.01,2013-01-24 12:13:00,
2013-01-24 05:18:00,43.5,13.4,29.92,WSW,243,12.3,37.6,29,0.00,,FEW110,0.00,VWS V14.01,2013-01-24 12:18:00,
2013-01-24 05:23:00,42.4,13.2,29.92,SW,236,8.1,37.6,30,0.00,,FEW110,0.00,VWS V14.01,2013-01-24 12:23:00,
2013-01-24 05:28:00,43.7,13.5,29.92,SW,220,12.3,37.6,29,0.00,,FEW110,0.00,VWS V14.01,2013-01-24 12:28:00,
2013-01-24 05:33:00,44.4,14.2,29.92,SSW,206,13.2,15.9,29,0.00,,FEW110,0.00,VWS V14.01,2013-01-24 12:33:00,
2013-01-24 05:38:00,43.3,14.0,29.92,SW,230,8.1,15.9,30,0.00,,FEW110,0.00,VWS V14.01,2013-01-24 12:38:00,
2013-01-24 05:43:00,43.2,13.8,29.92,West,278,15.0,15.9,30,0.00,,FEW110,0.00,VWS V14.01,2013-01-24 12:43:00,
2013-01-24 05:48:00,43.9,14.5,29.92,SSW,201,8.7,21.5,30,0.00,,FEW110,0.00,VWS V14.01,2013-01-24 12:48:00,
2013-01-24 05:53:00,42.4,13.2,29.92,West,273,5.8,21.5,30,0.00,,FEW110,0.00,VWS V14.01,2013-01-24 12:53:00,
2013-01-24 05:58:00,43.3,14.0,29.92,North,0,0.0,21.5,30,0.00,,FEW110,0.00,VWS V14.01,2013-01-24 12:58:00,
2013-01-24 06:03:00,42.1,12.9,29.92,NW,323,4.9,4.9,30,0.00,,OVC110,0.00,VWS V14.01,2013-01-24 13:03:00,
2013-01-24 06:08:00,43.3,14.0,29.92,West,279,5.4,11.0,30,0.00,,OVC110,0.00,VWS V14.01,2013-01-24 13:08:00,
2013-01-24 06:13:00,41.2,12.9,29.92,SSW,213,6.7,11.0,31,0.00,,OVC110,0.00,VWS V14.01,2013-01-24 13:13:00,
2013-01-24 06:18:00,41.9,13.5,29.92,West,267,8.3,13.2,31,0.00,,OVC110,0.00,VWS V14.01,2013-01-24 13:18:00,
2013-01-24 06:23:00,41.2,12.9,29.92,SW,221,3.6,13.2,31,0.00,,OVC110,0.00,VWS V14.01,2013-01-24 13:23:00,
2013-01-24 06:28:00,39.7,12.3,29.92,NW,311,0.0,13.2,32,0.00,,OVC110,0.00,VWS V14.01,2013-01-24 13:28:00,
2013-01-24 06:33:00,40.6,13.1,29.92,North,0,6.7,6.7,32,0.00,,OVC110,0.00,VWS V14.01,2013-01-24 13:33:00,
2013-01-24 06:38:00,40.3,12.8,29.92,North,0,0.0,6.7,32,0.00,,OVC110,0.00,VWS V14.01,2013-01-24 13:38:00,
2013-01-24 06:43:00,39.4,12.7,29.92,South,182,5.4,6.7,33,0.00,,OVC110,0.00,VWS V14.01,2013-01-24 13:43:00,
2013-01-24 06:47:00,42.4,14.7,29.92,South,175,6.3,8.7,32,0.00,,OVC110,0.00,VWS V14.01,2013-01-24 13:47:00,
2013-01-24 06:52:00,42.1,13.6,29.92,WSW,250,0.0,8.7,31,0.00,,OVC110,0.00,VWS V14.01,2013-01-24 13:52:00,
2013-01-24 06:57:00,42.6,14.1,29.92,ESE,107,3.6,8.7,31,0.00,,OVC110,0.00,VWS V14.01,2013-01-24 13:57:00,
2013-01-24 07:02:00,41.4,13.7,29.92,SSW,212,8.3,8.3,32,0.00,,OVC110,0.00,VWS V14.01,2013-01-24 14:02:00,
2013-01-24 07:07:00,41.9,13.5,29.92,WSW,252,3.1,8.3,31,0.00,,OVC110,0.00,VWS V14.01,2013-01-24 14:07:00,
2013-01-24 07:12:00,41.2,12.9,29.92,WSW,245,5.4,8.3,31,0.00,,OVC110,0.00,VWS V14.01,2013-01-24 14:12:00,
2013-01-24 07:17:00,42.8,14.3,29.92,South,183,18.3,18.3,31,0.00,,OVC110,0.00,VWS V14.01,2013-01-24 14:17:00,
2013-01-24 07:22:00,43.0,14.4,29.92,SE,137,6.3,18.3,31,0.00,,OVC110,0.00,VWS V14.01,2013-01-24 14:22:00,
2013-01-24 07:27:00,43.7,14.3,29.92,SE,139,10.1,18.3,30,0.00,,OVC110,0.00,VWS V14.01,2013-01-24 14:27:00,
2013-01-24 07:32:00,43.0,13.7,29.95,South,187,15.4,22.8,30,0.00,,OVC110,0.00,VWS V14.01,2013-01-24 14:32:00,
2013-01-24 07:37:00,42.3,13.8,29.95,SSW,194,5.4,22.8,31,0.00,,OVC110,0.00,VWS V14.01,2013-01-24 14:37:00,
2013-01-24 07:42:00,43.9,14.5,29.95,South,171,11.4,22.8,30,0.00,,OVC110,0.00,VWS V14.01,2013-01-24 14:42:00,
2013-01-24 07:47:00,44.6,15.1,29.95,South,178,14.5,22.8,30,0.00,,OVC110,0.00,VWS V14.01,2013-01-24 14:47:00,
2013-01-24 07:52:00,43.0,13.7,29.95,SE,131,5.4,22.8,30,0.00,,OVC110,0.00,VWS V14.01,2013-01-24 14:52:00,
2013-01-24 07:57:00,43.2,13.8,29.95,South,183,5.4,22.8,30,0.00,,OVC110,0.00,VWS V14.01,2013-01-24 14:57:00,
2013-01-24 08:02:00,39.6,12.9,29.95,West,265,8.7,8.7,33,0.00,,CLR,0.00,VWS V14.01,2013-01-24 15:02:00,
2013-01-24 08:07:00,40.5,12.9,29.95,SSW,197,6.3,8.7,32,0.00,,CLR,0.00,VWS V14.01,2013-01-24 15:07:00,
2013-01-24 08:12:00,39.4,12.7,29.95,SSW,212,8.3,8.7,33,0.00,,CLR,0.00,VWS V14.01,2013-01-24 15:12:00,
2013-01-24 08:17:00,39.6,12.9,29.95,SSW,195,4.9,10.1,33,0.00,,CLR,0.00,VWS V14.01,2013-01-24 15:17:00,
2013-01-24 08:22:00,42.3,14.5,29.95,WSW,237,0.0,10.1,32,0.00,,CLR,0.00,VWS V14.01,2013-01-24 15:22:00,
2013-01-24 08:27:00,45.7,16.8,29.95,South,186,0.0,10.1,31,0.00,,CLR,0.00,VWS V14.01,2013-01-24 15:27:00,
2013-01-24 08:32:00,45.9,16.2,29.95,South,172,4.0,6.3,30,0.00,,CLR,0.00,VWS V14.01,2013-01-24 15:32:00,
2013-01-24 08:37:00,43.7,15.1,29.95,WNW,289,6.3,6.3,31,0.00,,CLR,0.00,VWS V14.01,2013-01-24 15:37:00,
2013-01-24 08:42:00,44.2,15.5,29.95,WSW,252,11.0,12.8,31,0.00,,CLR,0.00,VWS V14.01,2013-01-24 15:42:00,
2013-01-24 08:47:00,44.1,15.4,29.95,SW,226,10.1,12.8,31,0.00,,CLR,0.00,VWS V14.01,2013-01-24 15:47:00,
2013-01-24 08:52:00,43.9,15.2,29.95,West,264,6.3,15.0,31,0.00,,CLR,0.00,VWS V14.01,2013-01-24 15:52:00,
2013-01-24 08:57:00,43.5,14.9,29.95,SW,228,10.5,18.3,31,0.00,,CLR,0.00,VWS V14.01,2013-01-24 15:57:00,
2013-01-24 09:02:00,43.2,14.6,29.95,WSW,252,10.1,15.4,31,0.00,,CLR,0.00,VWS V14.01,2013-01-24 16:02:00,
2013-01-24 09:07:00,42.6,14.8,29.95,West,260,6.3,15.4,32,0.00,,CLR,0.00,VWS V14.01,2013-01-24 16:07:00,
2013-01-24 09:12:00,42.3,14.5,29.95,SW,229,11.9,15.4,32,0.00,,CLR,0.00,VWS V14.01,2013-01-24 16:12:00,
2013-01-24 09:17:00,42.4,14.7,29.95,SW,224,11.9,17.4,32,0.00,,CLR,0.00,VWS V14.01,2013-01-24 16:17:00,
2013-01-24 09:22:00,42.4,15.4,29.95,WSW,243,7.6,17.4,33,0.00,,CLR,0.00,VWS V14.01,2013-01-24 16:22:00,
2013-01-24 09:27:00,43.0,14.4,29.95,NW,317,7.6,17.4,31,0.00,,CLR,0.00,VWS V14.01,2013-01-24 16:27:00,
2013-01-24 09:32:00,42.3,14.5,29.98,West,279,6.3,6.3,32,0.00,,CLR,0.00,VWS V14.01,2013-01-24 16:32:00,
2013-01-24 09:37:00,41.7,14.1,29.98,West,279,3.6,7.6,32,0.00,,CLR,0.00,VWS V14.01,2013-01-24 16:37:00,
2013-01-24 09:42:00,41.7,14.1,29.98,North,6,3.1,7.6,32,0.00,,CLR,0.00,VWS V14.01,2013-01-24 16:42:00,
2013-01-24 09:47:00,41.5,13.9,29.98,ENE,71,4.9,7.6,32,0.00,,CLR,0.00,VWS V14.01,2013-01-24 16:47:00,
2013-01-24 09:52:00,41.7,14.1,29.98,ENE,70,3.1,7.6,32,0.00,,CLR,0.00,VWS V14.01,2013-01-24 16:52:00,
2013-01-24 09:57:00,42.1,14.4,29.98,WSW,248,7.6,10.1,32,0.00,,CLR,0.00,VWS V14.01,2013-01-24 16:57:00,
2013-01-24 10:02:00,42.1,15.1,29.98,NW,311,2.7,3.6,33,0.00,,CLR,0.00,VWS V14.01,2013-01-24 17:02:00,
2013-01-24 10:07:00,41.0,14.8,29.98,East,100,4.0,4.0,34,0.00,,CLR,0.00,VWS V14.01,2013-01-24 17:07:00,
2013-01-24 10:12:00,41.7,14.8,29.98,ESE,116,3.1,4.0,33,0.00,,CLR,0.00,VWS V14.01,2013-01-24 17:12:00,
2013-01-24 10:17:00,41.0,14.1,29.95,North,353,7.6,7.6,33,0.00,,CLR,0.00,VWS V14.01,2013-01-24 17:17:00,
2013-01-24 10:22:00,42.3,14.5,29.95,ENE,65,0.0,7.6,32,0.00,,CLR,0.00,VWS V14.01,2013-01-24 17:22:00,
2013-01-24 10:27:00,41.7,14.1,29.95,ENE,59,3.6,7.6,32,0.00,,CLR,0.00,VWS V14.01,2013-01-24 17:27:00,
2013-01-24 10:32:00,41.7,14.1,29.95,NNE,28,5.4,5.8,32,0.00,,CLR,0.00,VWS V14.01,2013-01-24 17:32:00,
2013-01-24 10:37:00,42.8,15.0,29.95,NE,47,5.8,7.2,32,0.00,,CLR,0.00,VWS V14.01,2013-01-24 17:37:00,
2013-01-24 10:42:00,43.3,14.8,29.95,SE,124,4.9,7.2,31,0.00,,CLR,0.00,VWS V14.01,2013-01-24 17:42:00,
2013-01-24 10:47:00,43.5,15.6,29.95,ESE,117,3.6,7.2,32,0.00,,CLR,0.00,VWS V14.01,2013-01-24 17:47:00,
2013-01-24 10:52:00,43.5,15.6,29.95,SE,131,2.7,7.2,32,0.00,,CLR,0.00,VWS V14.01,2013-01-24 17:52:00,
2013-01-24 10:57:00,42.8,15.0,29.95,East,84,2.2,7.2,32,0.00,,CLR,0.00,VWS V14.01,2013-01-24 17:57:00,
2013-01-24 11:02:00,42.8,15.0,29.95,East,101,2.2,2.2,32,0.00,,CLR,0.00,VWS V14.01,2013-01-24 18:02:00,
2013-01-24 11:07:00,42.1,14.4,29.95,East,101,0.0,2.2,32,0.00,,CLR,0.00,VWS V14.01,2013-01-24 18:07:00,
2013-01-24 11:12:00,41.7,14.8,29.95,NE,49,8.1,8.1,33,0.00,,CLR,0.00,VWS V14.01,2013-01-24 18:12:00,
2013-01-24 11:17:00,42.3,15.2,29.95,NNW,346,4.0,10.1,33,0.00,,CLR,0.00,VWS V14.01,2013-01-24 18:17:00,
2013-01-24 11:22:00,39.2,13.2,29.95,NW,324,8.3,10.5,34,0.00,,CLR,0.00,VWS V14.01,2013-01-24 18:22:00,
2013-01-24 11:27:00,39.4,13.4,29.95,North,357,3.1,10.5,34,0.00,,CLR,0.00,VWS V14.01,2013-01-24 18:27:00,
2013-01-24 11:32:00,40.3,13.5,29.95,NW,324,3.1,5.4,33,0.00,,CLR,0.00,VWS V14.01,2013-01-24 18:32:00,
2013-01-24 11:37:00,41.2,15.0,29.98,NNW,333,4.9,6.3,34,0.00,,CLR,0.00,VWS V14.01,2013-01-24 18:37:00,
2013-01-24 11:42:00,41.4,14.4,29.98,NNW,346,4.0,6.3,33,0.00,,CLR,0.00,VWS V14.01,2013-01-24 18:42:00,
2013-01-24 11:47:00,40.6,14.5,29.98,NNW,337,4.0,6.3,34,0.00,,CLR,0.00,VWS V14.01,2013-01-24 18:47:00,
2013-01-24 11:52:00,41.0,14.8,29.98,NNW,335,5.4,6.3,34,0.00,,CLR,0.00,VWS V14.01,2013-01-24 18:52:00,
2013-01-24 11:57:00,40.6,15.1,29.98,NW,309,6.3,6.3,35,0.00,,CLR,0.00,VWS V14.01,2013-01-24 18:57:00,
2013-01-24 12:02:00,40.8,14.6,29.98,NNW,340,0.0,0.0,34,0.00,,CLR,0.00,VWS V14.01,2013-01-24 19:02:00,
2013-01-24 12:07:00,42.1,15.8,29.98,NE,49,0.0,3.1,34,0.00,,CLR,0.00,VWS V14.01,2013-01-24 19:07:00,
2013-01-24 12:12:00,42.8,15.7,29.98,West,262,5.4,6.3,33,0.00,,CLR,0.00,VWS V14.01,2013-01-24 19:12:00,
2013-01-24 12:17:00,42.4,16.1,29.98,SE,127,4.9,6.3,34,0.00,,CLR,0.00,VWS V14.01,2013-01-24 19:17:00,
2013-01-24 12:22:00,42.8,15.7,29.98,ENE,71,3.6,6.3,33,0.00,,CLR,0.00,VWS V14.01,2013-01-24 19:22:00,
2013-01-24 12:27:00,43.0,15.9,29.98,North,0,0.0,6.3,33,0.00,,CLR,0.00,VWS V14.01,2013-01-24 19:27:00,
2013-01-24 12:32:00,42.3,15.9,29.98,NE,50,6.3,8.3,34,0.00,,CLR,0.00,VWS V14.01,2013-01-24 19:32:00,
2013-01-24 12:37:00,42.8,16.4,29.98,ENE,63,5.8,8.7,34,0.00,,CLR,0.00,VWS V14.01,2013-01-24 19:37:00,
2013-01-24 12:42:00,44.2,17.7,29.98,East,89,3.6,10.5,34,0.00,,CLR,0.00,VWS V14.01,2013-01-24 19:42:00,
2013-01-24 12:47:00,46.0,17.9,29.98,ENE,60,3.1,10.5,32,0.00,,CLR,0.00,VWS V14.01,2013-01-24 19:47:00,
2013-01-24 12:52:00,45.1,17.1,29.98,ESE,106,5.8,10.5,32,0.00,,CLR,0.00,VWS V14.01,2013-01-24 19:52:00,
2013-01-24 12:57:00,44.2,17.0,29.98,ESE,111,6.3,10.5,33,0.00,,CLR,0.00,VWS V14.01,2013-01-24 19:57:00,
2013-01-24 13:02:00,44.2,17.0,29.98,East,87,5.4,5.8,33,0.00,,CLR,0.00,VWS V14.01,2013-01-24 20:02:00,
2013-01-24 13:07:00,43.9,15.9,29.98,SE,126,8.1,8.7,32,0.00,,OVC075,0.00,VWS V14.01,2013-01-24 20:07:00,
2013-01-24 13:12:00,44.6,16.6,29.98,SE,130,6.3,8.7,32,0.00,,OVC075,0.00,VWS V14.01,2013-01-24 20:12:00,
2013-01-24 13:17:00,44.2,16.3,29.98,SE,125,8.7,8.7,32,0.00,,OVC075,0.00,VWS V14.01,2013-01-24 20:17:00,
2013-01-24 13:22:00,45.5,17.4,29.98,East,96,3.1,8.7,32,0.00,,OVC075,0.00,VWS V14.01,2013-01-24 20:22:00,
2013-01-24 13:27:00,44.1,16.8,29.98,ESE,122,3.1,8.7,33,0.00,,OVC075,0.00,VWS V14.01,2013-01-24 20:27:00,
2013-01-24 13:32:00,44.2,17.0,29.98,SE,125,5.4,6.3,33,0.00,,OVC075,0.00,VWS V14.01,2013-01-24 20:32:00,
2013-01-24 13:37:00,43.3,16.2,29.98,SE,140,4.9,8.3,33,0.00,,OVC075,0.00,VWS V14.01,2013-01-24 20:37:00,
2013-01-24 13:42:00,43.0,15.9,29.98,SE,145,4.0,8.3,33,0.00,,OVC075,0.00,VWS V14.01,2013-01-24 20:42:00,
2013-01-24 13:47:00,43.9,16.7,29.98,East,92,4.0,8.3,33,0.00,,OVC075,0.00,VWS V14.01,2013-01-24 20:47:00,
2013-01-24 13:52:00,43.2,16.0,30.01,East,89,10.1,10.1,33,0.00,,OVC075,0.00,VWS V14.01,2013-01-24 20:52:00,
2013-01-24 13:57:00,43.3,16.2,30.01,ESE,111,4.9,10.1,33,0.00,,OVC075,0.00,VWS V14.01,2013-01-24 20:57:00,
2013-01-24 14:02:00,43.0,15.9,30.01,SE,135,4.0,4.0,33,0.00,,OVC075,0.00,VWS V14.01,2013-01-24 21:02:00,
2013-01-24 14:07:00,43.2,16.0,30.01,South,169,5.8,5.8,33,0.00,,OVC075,0.00,VWS V14.01,2013-01-24 21:07:00,
2013-01-24 14:12:00,43.0,15.9,30.01,SSE,162,5.4,8.1,33,0.00,,OVC075,0.00,VWS V14.01,2013-01-24 21:12:00,
2013-01-24 14:17:00,43.7,16.5,30.01,South,183,4.9,8.3,33,0.00,,OVC075,0.00,VWS V14.01,2013-01-24 21:17:00,
2013-01-24 14:22:00,44.1,17.5,30.01,SSW,210,0.0,8.3,34,0.00,,OVC075,0.00,VWS V14.01,2013-01-24 21:22:00,
2013-01-24 14:27:00,43.7,17.2,30.01,NNE,29,4.0,8.3,34,0.00,,OVC075,0.00,VWS V14.01,2013-01-24 21:27:00,
2013-01-24 14:32:00,43.3,16.9,30.01,East,97,4.0,5.8,34,0.00,,OVC075,0.00,VWS V14.01,2013-01-24 21:32:00,
2013-01-24 14:37:00,43.7,16.5,30.04,ENE,64,3.6,5.8,33,0.00,,OVC075,0.00,VWS V14.01,2013-01-24 21:37:00,
2013-01-24 14:42:00,43.5,17.0,30.04,ESE,105,3.6,5.8,34,0.00,,OVC075,0.00,VWS V14.01,2013-01-24 21:42:00,
2013-01-24 14:47:00,44.6,17.3,30.04,East,92,0.0,5.8,33,0.00,,OVC075,0.00,VWS V14.01,2013-01-24 21:47:00,
2013-01-24 14:52:00,44.8,17.5,30.04,SE,126,3.6,5.8,33,0.00,,OVC075,0.00,VWS V14.01,2013-01-24 21:52:00,
2013-01-24 14:57:00,45.7,17.5,30.04,SSE,151,2.7,5.8,32,0.00,,OVC075,0.00,VWS V14.01,2013-01-24 21:57:00,
2013-01-24 15:02:00,45.9,17.7,30.04,SSE,162,5.4,5.4,32,0.00,,OVC075,0.00,VWS V14.01,2013-01-24 22:02:00,
2013-01-24 15:07:00,45.5,17.4,30.04,SSE,156,4.0,5.8,32,0.00,,CLR,0.00,VWS V14.01,2013-01-24 22:07:00,
2013-01-24 15:12:00,45.3,16.5,30.04,South,175,5.8,6.3,31,0.00,,CLR,0.00,VWS V14.01,2013-01-24 22:12:00,
2013-01-24 15:17:00,46.6,17.6,30.04,SSW,192,6.3,8.1,31,0.00,,CLR,0.00,VWS V14.01,2013-01-24 22:17:00,
2013-01-24 15:22:00,47.1,17.3,30.01,South,170,2.7,8.1,30,0.00,,CLR,0.00,VWS V14.01,2013-01-24 22:22:00,
2013-01-24 15:27:00,43.5,16.3,30.01,ESE,123,4.0,8.1,33,0.00,,CLR,0.00,VWS V14.01,2013-01-24 22:27:00,
2013-01-24 15:32:00,42.8,16.4,30.01,ESE,113,5.8,6.3,34,0.00,,CLR,0.00,VWS V14.01,2013-01-24 22:32:00,
2013-01-24 15:37:00,44.1,17.5,30.04,East,100,4.9,8.7,34,0.00,,CLR,0.00,VWS V14.01,2013-01-24 22:37:00,
2013-01-24 15:42:00,43.9,16.7,30.04,ESE,102,5.4,8.7,33,0.00,,CLR,0.00,VWS V14.01,2013-01-24 22:42:00,
2013-01-24 15:47:00,43.0,16.5,30.04,ESE,105,7.6,8.7,34,0.00,,CLR,0.00,VWS V14.01,2013-01-24 22:47:00,
2013-01-24 15:52:00,44.1,17.5,30.04,West,276,5.4,8.7,34,0.00,,CLR,0.00,VWS V14.01,2013-01-24 22:52:00,
2013-01-24 15:57:00,43.9,17.4,30.04,NW,308,0.0,8.7,34,0.00,,CLR,0.00,VWS V14.01,2013-01-24 22:57:00,
2013-01-24 16:02:00,43.9,17.4,30.04,WNW,302,0.0,0.0,34,0.00,,CLR,0.00,VWS V14.01,2013-01-24 23:02:00,
2013-01-24 16:07:00,44.2,17.0,30.04,North,5,3.6,4.0,33,0.00,,FEW085,0.00,VWS V14.01,2013-01-24 23:07:00,
2013-01-24 16:12:00,43.2,16.7,30.04,East,79,4.5,5.8,34,0.00,,FEW085,0.00,VWS V14.01,2013-01-24 23:12:00,
2013-01-24 16:17:00,41.7,16.1,30.04,ESE,108,2.7,5.8,35,0.00,,FEW085,0.00,VWS V14.01,2013-01-24 23:17:00,
2013-01-24 16:22:00,41.0,15.5,30.04,ENE,75,4.0,5.8,35,0.00,,FEW085,0.00,VWS V14.01,2013-01-24 23:22:00,
2013-01-24 16:27:00,39.9,16.4,30.04,East,99,4.0,5.8,38,0.00,,FEW085,0.00,VWS V14.01,2013-01-24 23:27:00,
2013-01-24 16:32:00,39.2,16.3,30.07,East,101,5.4,5.4,39,0.00,,FEW085,0.00,VWS V14.01,2013-01-24 23:32:00,
2013-01-24 16:37:00,38.5,16.3,30.07,ESE,122,3.1,7.6,40,0.00,,FEW085,0.00,VWS V14.01,2013-01-24 23:37:00,
2013-01-24 16:42:00,37.8,15.6,30.07,ESE,118,0.0,7.6,40,0.00,,FEW085,0.00,VWS V14.01,2013-01-24 23:42:00,
2013-01-24 16:47:00,37.2,15.7,30.07,ESE,119,0.0,7.6,41,0.00,,FEW085,0.00,VWS V14.01,2013-01-24 23:47:00,
2013-01-24 16:52:00,35.6,15.3,30.07,ESE,119,0.0,7.6,43,0.00,,FEW085,0.00,VWS V14.01,2013-01-24 23:52:00,
2013-01-24 16:57:00,35.1,16.4,30.07,SW,227,4.9,7.6,46,0.00,,FEW085,0.00,VWS V14.01,2013-01-24 23:57:00,
2013-01-24 17:02:00,33.6,17.0,30.07,SW,234,3.6,4.9,50,0.00,,FEW085,0.00,VWS V14.01,2013-01-25 00:02:00,
2013-01-24 17:07:00,33.3,16.6,30.07,SW,224,5.4,6.3,50,0.00,,FEW060,0.00,VWS V14.01,2013-01-25 00:07:00,
2013-01-24 17:12:00,33.3,17.1,30.07,SSE,161,4.0,6.3,51,0.00,,FEW060,0.00,VWS V14.01,2013-01-25 00:12:00,
2013-01-24 17:17:00,35.2,18.5,30.07,SSE,158,5.4,6.3,50,0.00,,FEW060,0.00,VWS V14.01,2013-01-25 00:17:00,
2013-01-24 17:22:00,34.3,17.2,30.07,SSE,166,0.0,6.3,49,0.00,,FEW060,0.00,VWS V14.01,2013-01-25 00:22:00,
2013-01-24 17:27:00,33.3,16.6,30.07,SSE,166,0.0,6.3,50,0.00,,FEW060,0.00,VWS V14.01,2013-01-25 00:27:00,
2013-01-24 17:32:00,31.8,16.2,30.07,SSE,168,0.0,0.0,52,0.00,,FEW060,0.00,VWS V14.01,2013-01-25 00:32:00,
2013-01-24 17:37:00,34.9,18.6,30.07,ESE,117,4.0,5.4,51,0.00,,FEW060,0.00,VWS V14.01,2013-01-25 00:37:00,
2013-01-24 17:42:00,34.5,17.3,30.07,SSW,200,3.6,5.4,49,0.00,,FEW060,0.00,VWS V14.01,2013-01-25 00:42:00,
2013-01-24 17:47:00,32.2,16.1,30.07,SSW,203,3.6,5.4,51,0.00,,FEW060,0.00,VWS V14.01,2013-01-25 00:47:00,
2013-01-24 17:52:00,30.9,15.8,30.07,SW,227,5.4,5.4,53,0.00,,FEW060,0.00,VWS V14.01,2013-01-25 00:52:00,
2013-01-24 17:57:00,28.8,14.2,30.07,SW,221,4.9,6.3,54,0.00,,FEW060,0.00,VWS V14.01,2013-01-25 00:57:00,
2013-01-24 18:02:00,27.7,14.0,30.07,West,261,2.7,4.0,56,0.00,,FEW060,0.00,VWS V14.01,2013-01-25 01:02:00,
2013-01-24 18:07:00,28.6,16.1,30.07,SSW,195,2.2,4.0,59,0.00,,SCT075,0.00,VWS V14.01,2013-01-25 01:07:00,
2013-01-24 18:12:00,27.1,13.5,30.07,WSW,248,5.8,6.7,56,0.00,,SCT075,0.00,VWS V14.01,2013-01-25 01:12:00,
2013-01-24 18:17:00,27.0,14.6,30.07,SW,220,5.8,7.2,59,0.00,,SCT075,0.00,VWS V14.01,2013-01-25 01:17:00,
2013-01-24 18:22:00,28.4,14.3,30.07,SW,220,4.9,7.6,55,0.00,,SCT075,0.00,VWS V14.01,2013-01-25 01:22:00,
2013-01-24 18:27:00,28.6,13.6,30.07,WSW,254,5.8,7.6,53,0.00,,SCT075,0.00,VWS V14.01,2013-01-25 01:27:00,
2013-01-24 18:32:00,27.5,12.6,30.07,WSW,243,6.3,6.3,53,0.00,,SCT075,0.00,VWS V14.01,2013-01-25 01:32:00,
2013-01-24 18:37:00,27.0,12.6,30.10,SW,232,6.3,6.7,54,0.00,,SCT075,0.00,VWS V14.01,2013-01-25 01:37:00,
2013-01-24 18:42:00,27.1,12.3,30.10,SW,233,6.3,7.6,53,0.00,,SCT075,0.00,VWS V14.01,2013-01-25 01:42:00,
2013-01-24 18:47:00,26.6,11.8,30.10,SW,235,6.3,7.6,53,0.00,,SCT075,0.00,VWS V14.01,2013-01-25 01:47:00,
2013-01-24 18:52:00,26.8,12.0,30.10,SW,229,7.2,7.6,53,0.00,,SCT075,0.00,VWS V14.01,2013-01-25 01:52:00,
2013-01-24 18:57:00,27.0,12.1,30.10,SW,215,8.1,8.3,53,0.00,,SCT075,0.00,VWS V14.01,2013-01-25 01:57:00,
2013-01-24 19:02:00,27.0,11.7,30.10,SW,230,7.6,7.6,52,0.00,,SCT075,0.00,VWS V14.01,2013-01-25 02:02:00,
2013-01-24 19:07:00,27.1,11.4,30.10,SW,218,5.4,8.1,51,0.00,,CLR,0.00,VWS V14.01,2013-01-25 02:07:00,
2013-01-24 19:12:00,27.1,11.4,30.10,SW,220,6.7,8.1,51,0.00,,CLR,0.00,VWS V14.01,2013-01-25 02:12:00,
2013-01-24 19:17:00,27.1,11.0,30.10,SW,222,8.1,8.3,50,0.00,,CLR,0.00,VWS V14.01,2013-01-25 02:17:00,
2013-01-24 19:22:00,27.5,10.9,30.10,SW,223,7.2,8.7,49,0.00,,CLR,0.00,VWS V14.01,2013-01-25 02:22:00,
2013-01-24 19:27:00,27.9,10.7,30.10,SW,235,7.2,8.7,48,0.00,,CLR,0.00,VWS V14.01,2013-01-25 02:27:00,
2013-01-24 19:32:00,27.5,10.4,30.10,SW,231,6.3,6.3,48,0.00,,CLR,0.00,VWS V14.01,2013-01-25 02:32:00,
2013-01-24 19:37:00,26.8,9.7,30.10,SW,231,6.7,8.1,48,0.00,,CLR,0.00,VWS V14.01,2013-01-25 02:37:00,
2013-01-24 19:42:00,26.4,10.3,30.10,WSW,237,6.3,8.1,50,0.00,,CLR,0.00,VWS V14.01,2013-01-25 02:42:00,
2013-01-24 19:47:00,27.1,10.5,30.10,WSW,237,8.1,8.3,49,0.00,,CLR,0.00,VWS V14.01,2013-01-25 02:47:00,
2013-01-24 19:52:00,27.0,9.9,30.10,WSW,240,5.8,8.3,48,0.00,,CLR,0.00,VWS V14.01,2013-01-25 02:52:00,
2013-01-24 19:57:00,27.0,9.9,30.10,WSW,243,6.3,8.3,48,0.00,,CLR,0.00,VWS V14.01,2013-01-25 02:57:00,
2013-01-24 20:02:00,26.4,9.9,30.10,SW,222,6.3,6.7,49,0.00,,CLR,0.00,VWS V14.01,2013-01-25 03:02:00,
2013-01-24 20:07:00,25.7,9.2,30.10,SW,235,3.6,6.7,49,0.00,,CLR,0.00,VWS V14.01,2013-01-25 03:07:00,
2013-01-24 20:12:00,24.8,9.7,30.10,WSW,240,4.9,6.7,52,0.00,,CLR,0.00,VWS V14.01,2013-01-25 03:12:00,
2013-01-24 20:17:00,24.3,9.2,30.10,SW,236,7.6,7.6,52,0.00,,CLR,0.00,VWS V14.01,2013-01-25 03:17:00,
2013-01-24 20:22:00,23.9,9.3,30.10,SW,233,7.2,7.6,53,0.00,,CLR,0.00,VWS V14.01,2013-01-25 03:22:00,
2013-01-24 20:27:00,24.4,9.4,30.10,SW,235,6.7,8.1,52,0.00,,CLR,0.00,VWS V14.01,2013-01-25 03:27:00,
2013-01-24 20:32:00,24.6,9.5,30.10,SW,236,8.1,8.3,52,0.00,,CLR,0.00,VWS V14.01,2013-01-25 03:32:00,
2013-01-24 20:37:00,25.2,9.1,30.10,SW,227,6.3,8.3,50,0.00,,CLR,0.00,VWS V14.01,2013-01-25 03:37:00,
2013-01-24 20:42:00,25.2,8.7,30.10,WSW,249,6.3,8.3,49,0.00,,CLR,0.00,VWS V14.01,2013-01-25 03:42:00,
2013-01-24 20:47:00,25.3,8.4,30.10,WSW,249,6.3,8.3,48,0.00,,CLR,0.00,VWS V14.01,2013-01-25 03:47:00,
2013-01-24 20:52:00,24.1,9.0,30.10,SW,235,6.7,8.3,52,0.00,,CLR,0.00,VWS V14.01,2013-01-25 03:52:00,
2013-01-24 20:57:00,24.4,9.4,30.10,WSW,256,7.6,8.7,52,0.00,,CLR,0.00,VWS V14.01,2013-01-25 03:57:00,
2013-01-24 21:02:00,23.7,8.7,30.10,WSW,237,5.8,6.7,52,0.00,,CLR,0.00,VWS V14.01,2013-01-25 04:02:00,
2013-01-24 21:07:00,23.4,8.4,30.10,WSW,246,5.4,7.6,52,0.00,,CLR,0.00,VWS V14.01,2013-01-25 04:07:00,
2013-01-24 21:12:00,23.7,8.7,30.10,WSW,250,8.7,8.7,52,0.00,,CLR,0.00,VWS V14.01,2013-01-25 04:12:00,
2013-01-24 21:17:00,22.8,8.7,30.10,WSW,247,6.3,8.7,54,0.00,,CLR,0.00,VWS V14.01,2013-01-25 04:17:00,
2013-01-24 21:22:00,22.8,9.5,30.10,WSW,241,6.3,8.7,56,0.00,,CLR,0.00,VWS V14.01,2013-01-25 04:22:00,
2013-01-24 21:27:00,22.8,9.5,30.10,WSW,256,8.1,8.7,56,0.00,,CLR,0.00,VWS V14.01,2013-01-25 04:27:00,
2013-01-24 21:32:00,23.0,9.2,30.10,WSW,257,6.3,8.7,55,0.00,,CLR,0.00,VWS V14.01,2013-01-25 04:32:00,
2013-01-24 21:37:00,22.8,9.5,30.10,WSW,238,8.7,8.7,56,0.00,,CLR,0.00,VWS V14.01,2013-01-25 04:37:00,
2013-01-24 21:42:00,23.0,9.7,30.10,SW,232,6.7,8.7,56,0.00,,CLR,0.00,VWS V14.01,2013-01-25 04:42:00,
2013-01-24 21:47:00,23.7,9.9,30.10,WSW,241,5.8,8.7,55,0.00,,CLR,0.00,VWS V14.01,2013-01-25 04:47:00,
2013-01-24 21:52:00,23.4,9.2,30.10,WSW,249,5.8,8.7,54,0.00,,CLR,0.00,VWS V14.01,2013-01-25 04:52:00,
2013-01-24 21:57:00,22.8,9.5,30.10,SW,232,7.2,8.7,56,0.00,,CLR,0.00,VWS V14.01,2013-01-25 04:57:00,
2013-01-24 22:01:00,23.4,9.6,30.10,WSW,251,6.7,8.7,55,0.00,,CLR,0.00,VWS V14.01,2013-01-25 05:01:00,
2013-01-24 22:03:00,23.4,9.6,30.10,SW,228,7.6,7.6,55,0.00,,CLR,0.00,VWS V14.01,2013-01-25 05:03:00,
2013-01-24 22:08:00,23.4,9.2,30.10,WSW,245,8.7,8.7,54,0.00,,CLR,0.00,VWS V14.01,2013-01-25 05:08:00,
2013-01-24 22:13:00,23.4,9.6,30.10,WSW,245,5.8,8.7,55,0.00,,CLR,0.00,VWS V14.01,2013-01-25 05:13:00,
2013-01-24 22:18:00,23.2,9.4,30.10,WSW,245,7.6,8.7,55,0.00,,CLR,0.00,VWS V14.01,2013-01-25 05:18:00,
2013-01-24 22:23:00,23.5,10.2,30.10,West,264,6.3,8.7,56,0.00,,CLR,0.00,VWS V14.01,2013-01-25 05:23:00,
2013-01-24 22:28:00,22.3,9.0,30.10,WSW,244,5.8,8.7,56,0.00,,CLR,0.00,VWS V14.01,2013-01-25 05:28:00,
2013-01-24 22:33:00,22.3,9.4,30.10,WSW,244,6.3,7.6,57,0.00,,CLR,0.00,VWS V14.01,2013-01-25 05:33:00,
2013-01-24 22:38:00,23.0,10.1,30.10,WSW,244,7.6,10.1,57,0.00,,CLR,0.00,VWS V14.01,2013-01-25 05:38:00,
2013-01-24 22:43:00,23.0,10.1,30.10,SW,232,8.3,10.1,57,0.00,,CLR,0.00,VWS V14.01,2013-01-25 05:43:00,
2013-01-24 22:48:00,24.3,10.0,30.10,WSW,245,5.4,10.1,54,0.00,,CLR,0.00,VWS V14.01,2013-01-25 05:48:00,
2013-01-24 22:53:00,24.1,11.1,30.10,SW,228,8.3,10.1,57,0.00,,CLR,0.00,VWS V14.01,2013-01-25 05:53:00,
2013-01-24 22:58:00,25.2,10.9,30.10,WSW,242,7.6,10.1,54,0.00,,CLR,0.00,VWS V14.01,2013-01-25 05:58:00,
2013-01-24 23:03:00,25.9,10.3,30.10,West,272,5.4,8.7,51,0.00,,CLR,0.00,VWS V14.01,2013-01-25 06:03:00,
2013-01-24 23:08:00,25.9,9.8,30.10,WSW,247,8.1,8.7,50,0.00,,CLR,0.00,VWS V14.01,2013-01-25 06:08:00,
2013-01-24 23:13:00,26.2,9.7,30.10,SW,232,8.3,9.2,49,0.00,,CLR,0.00,VWS V14.01,2013-01-25 06:13:00,
2013-01-24 23:18:00,27.1,10.1,30.10,WSW,239,8.1,9.2,48,0.00,,CLR,0.00,VWS V14.01,2013-01-25 06:18:00,
2013-01-24 23:23:00,28.2,10.1,30.10,SW,217,6.3,9.2,46,0.00,,CLR,0.00,VWS V14.01,2013-01-25 06:23:00,
2013-01-24 23:28:00,28.4,9.3,30.10,SSW,207,8.1,9.2,44,0.00,,CLR,0.00,VWS V14.01,2013-01-25 06:28:00,
2013-01-24 23:33:00,28.8,9.1,30.10,SW,214,8.7,10.1,43,0.00,,CLR,0.00,VWS V14.01,2013-01-25 06:33:00,
2013-01-24 23:38:00,29.3,9.6,30.10,SW,222,8.3,11.9,43,0.00,,CLR,0.00,VWS V14.01,2013-01-25 06:38:00,
2013-01-24 23:43:00,28.9,9.3,30.10,WSW,248,8.3,11.9,43,0.00,,CLR,0.00,VWS V14.01,2013-01-25 06:43:00,
2013-01-24 23:48:00,29.3,9.6,30.10,WSW,241,8.1,11.9,43,0.00,,CLR,0.00,VWS V14.01,2013-01-25 06:48:00,
2013-01-24 23:53:00,29.7,9.4,30.10,SW,218,7.6,11.9,42,0.00,,CLR,0.00,VWS V14.01,2013-01-25 06:53:00,
2013-01-24 23:58:00,30.2,9.9,30.10,WSW,238,10.5,11.9,42,0.00,,CLR,0.00,VWS V14.01,2013-01-25 06:58:00,